createdAt,value
2023-05-09T00:01:11.670Z,3.60
2023-05-09T00:03:39.601Z,3.10
2023-05-09T00:06:07.467Z,3.30
2023-05-09T00:08:34.780Z,3.10
2023-05-09T00:11:02.750Z,3.50
2023-05-09T00:13:30.115Z,3.10
2023-05-09T00:16:00.914Z,3.60
2023-05-09T00:18:30.227Z,3.00
2023-05-09T00:20:57.856Z,2.70
2023-05-09T00:23:25.240Z,3.40
2023-05-09T00:25:52.435Z,3.00
2023-05-09T00:28:20.348Z,2.80
2023-05-09T00:30:47.576Z,3.30
2023-05-09T00:33:14.787Z,3.20
2023-05-09T00:35:42.028Z,3.50
2023-05-09T00:38:09.160Z,3.60
2023-05-09T00:40:36.533Z,3.50
2023-05-09T00:43:04.997Z,3.10
2023-05-09T00:45:32.602Z,3.00
2023-05-09T00:48:00.206Z,3.60
2023-05-09T00:50:27.551Z,3.30
2023-05-09T00:52:54.908Z,3.10
2023-05-09T00:55:23.330Z,3.20
2023-05-09T00:57:50.696Z,3.30
2023-05-09T01:00:18.795Z,2.80
2023-05-09T01:02:53.260Z,3.70
2023-05-09T01:05:21.535Z,2.90
2023-05-09T01:08:03.127Z,3.00
2023-05-09T01:11:07.473Z,3.20
2023-05-09T01:13:58.091Z,3.10
2023-05-09T01:16:54.252Z,3.40
2023-05-09T01:19:54.285Z,3.00
2023-05-09T01:22:24.993Z,3.10
2023-05-09T01:25:21.379Z,2.80
2023-05-09T01:28:00.934Z,3.20
2023-05-09T01:30:29.872Z,2.90
2023-05-09T01:33:01.318Z,3.50
2023-05-09T01:35:31.495Z,3.20
2023-05-09T01:37:59.555Z,3.30
2023-05-09T01:40:31.383Z,3.30
2023-05-09T01:43:04.119Z,3.60
2023-05-09T01:45:33.001Z,3.20
2023-05-09T01:48:01.317Z,3.70
2023-05-09T01:50:32.855Z,4.40
2023-05-09T01:53:02.302Z,3.20
2023-05-09T01:55:34.422Z,3.70
2023-05-09T01:58:03.736Z,3.30
2023-05-09T02:00:33.830Z,3.40
2023-05-09T02:03:02.596Z,3.10
2023-05-09T02:05:32.618Z,3.50
2023-05-09T02:08:00.402Z,3.40
2023-05-09T02:10:29.105Z,3.50
2023-05-09T02:12:59.987Z,3.90
2023-05-09T02:15:29.337Z,3.30
2023-05-09T02:17:56.959Z,3.80
2023-05-09T02:20:24.244Z,4.00
2023-05-09T02:22:51.588Z,3.10
2023-05-09T02:25:18.995Z,3.60
2023-05-09T02:27:49.462Z,3.40
2023-05-09T02:30:25.420Z,3.70
2023-05-09T02:33:00.118Z,3.40
2023-05-09T02:35:29.023Z,3.50
2023-05-09T02:37:58.431Z,3.60
2023-05-09T02:40:28.308Z,3.40
2023-05-09T02:42:56.340Z,3.40
2023-05-09T02:45:23.973Z,3.60
2023-05-09T02:47:51.255Z,3.50
2023-05-09T02:50:18.515Z,3.20
2023-05-09T02:52:46.101Z,3.40
2023-05-09T02:55:13.636Z,3.50
2023-05-09T02:57:41.033Z,3.80
2023-05-09T03:00:09.804Z,3.40
2023-05-09T03:02:38.377Z,3.70
2023-05-09T03:05:06.692Z,4.10
2023-05-09T03:07:34.307Z,3.30
2023-05-09T03:10:01.595Z,4.60
2023-05-09T03:12:28.804Z,3.20
2023-05-09T03:14:55.975Z,3.60
2023-05-09T03:17:23.412Z,4.10
2023-05-09T03:19:50.710Z,4.30
2023-05-09T03:22:17.912Z,4.00
2023-05-09T03:24:45.120Z,3.90
2023-05-09T03:27:12.366Z,3.90
2023-05-09T03:29:39.613Z,3.10
2023-05-09T03:32:07.104Z,3.80
2023-05-09T03:34:34.346Z,2.80
2023-05-09T03:37:01.601Z,3.20
2023-05-09T03:39:28.784Z,3.40
2023-05-09T03:41:56.400Z,3.60
2023-05-09T03:44:23.700Z,3.70
2023-05-09T03:46:50.917Z,3.70
2023-05-09T03:49:18.077Z,3.70
2023-05-09T03:51:45.696Z,3.20
2023-05-09T03:54:12.956Z,3.60
2023-05-09T03:56:40.164Z,3.80
2023-05-09T03:59:07.483Z,3.20
2023-05-09T04:01:34.811Z,3.10
2023-05-09T04:04:02.219Z,3.20
2023-05-09T04:06:30.255Z,4.10
2023-05-09T04:08:57.450Z,4.10
2023-05-09T04:11:24.699Z,3.20
2023-05-09T04:13:52.020Z,3.50
2023-05-09T04:16:19.299Z,3.80
2023-05-09T04:18:46.454Z,3.90
2023-05-09T04:21:13.728Z,4.40
2023-05-09T04:23:41.217Z,4.10
2023-05-09T04:26:09.857Z,4.70
2023-05-09T04:28:37.228Z,3.60
2023-05-09T04:31:04.505Z,3.00
2023-05-09T04:33:31.980Z,3.60
2023-05-09T04:35:59.161Z,3.70
2023-05-09T04:38:26.395Z,3.60
2023-05-09T04:40:53.570Z,3.80
2023-05-09T04:43:20.796Z,4.10
2023-05-09T04:45:48.098Z,3.70
2023-05-09T04:48:15.389Z,4.30
2023-05-09T04:50:42.845Z,2.50
2023-05-09T04:53:11.113Z,2.90
2023-05-09T04:55:38.480Z,2.90
2023-05-09T04:58:06.034Z,3.10
2023-05-09T05:00:33.862Z,2.90
2023-05-09T05:03:01.011Z,2.70
2023-05-09T05:05:28.582Z,2.70
2023-05-09T05:07:56.169Z,2.60
2023-05-09T05:10:23.331Z,3.10
2023-05-09T05:12:50.640Z,2.70
2023-05-09T05:15:19.698Z,2.60
2023-05-09T05:17:47.079Z,2.60
2023-05-09T05:20:14.514Z,2.40
2023-05-09T05:22:41.792Z,4.20
2023-05-09T05:25:09.399Z,2.70
2023-05-09T05:27:36.742Z,2.40
2023-05-09T05:30:04.605Z,2.50
2023-05-09T05:32:31.954Z,2.40
2023-05-09T05:34:59.198Z,2.20
2023-05-09T05:37:26.504Z,2.30
2023-05-09T05:39:54.750Z,2.50
2023-05-09T05:42:22.098Z,2.40
2023-05-09T05:44:49.327Z,2.20
2023-05-09T05:47:16.475Z,4.50
2023-05-09T05:49:43.988Z,2.20
2023-05-09T05:52:11.209Z,2.00
2023-05-09T05:54:38.466Z,2.50
2023-05-09T05:57:05.887Z,2.70
2023-05-09T05:59:33.300Z,2.30
2023-05-09T06:02:00.615Z,2.50
2023-05-09T06:04:29.153Z,2.70
2023-05-09T06:06:56.461Z,2.80
2023-05-09T06:09:23.717Z,2.30
2023-05-09T06:11:51.048Z,2.30
2023-05-09T06:14:18.332Z,2.20
2023-05-09T06:16:45.592Z,2.30
2023-05-09T06:19:12.898Z,2.40
2023-05-09T06:21:40.280Z,2.00
2023-05-09T06:24:14.258Z,2.60
2023-05-09T06:26:47.583Z,2.00
2023-05-09T06:29:15.667Z,2.00
2023-05-09T06:31:43.031Z,2.20
2023-05-09T06:34:10.483Z,2.20
2023-05-09T06:36:37.841Z,2.20
2023-05-09T06:39:05.100Z,2.40
2023-05-09T06:41:32.338Z,2.20
2023-05-09T06:43:59.569Z,2.30
2023-05-09T06:46:26.827Z,2.00
2023-05-09T06:48:54.246Z,2.20
2023-05-09T06:51:21.575Z,2.30
2023-05-09T06:53:48.916Z,2.50
2023-05-09T06:56:17.900Z,2.20
2023-05-09T06:58:47.196Z,2.10
2023-05-09T07:01:14.617Z,2.20
2023-05-09T07:03:42.526Z,2.20
2023-05-09T07:06:09.762Z,2.40
2023-05-09T07:08:37.036Z,2.30
2023-05-09T07:11:04.980Z,2.20
2023-05-09T07:13:32.429Z,2.10
2023-05-09T07:15:59.866Z,2.10
2023-05-09T07:18:27.269Z,2.20
2023-05-09T07:20:54.431Z,2.30
2023-05-09T07:23:21.733Z,1.80
2023-05-09T07:25:49.165Z,2.30
2023-05-09T07:28:16.358Z,2.10
2023-05-09T07:30:44.612Z,2.10
2023-05-09T07:33:11.812Z,1.80
2023-05-09T07:35:39.342Z,2.10
2023-05-09T07:38:06.997Z,2.10
2023-05-09T07:40:36.998Z,2.30
2023-05-09T07:43:04.809Z,2.40
2023-05-09T07:45:32.651Z,2.10
2023-05-09T07:47:59.928Z,2.50
2023-05-09T07:50:27.638Z,3.10
2023-05-09T07:52:55.922Z,2.80
2023-05-09T07:55:23.152Z,2.50
2023-05-09T07:57:50.785Z,2.40
2023-05-09T08:00:23.565Z,2.50
2023-05-09T08:02:54.480Z,3.00
2023-05-09T08:05:21.953Z,2.60
2023-05-09T08:07:49.322Z,3.10
2023-05-09T08:10:17.265Z,2.70
2023-05-09T08:12:44.540Z,3.20
2023-05-09T08:15:12.276Z,2.60
2023-05-09T08:17:40.537Z,3.00
2023-05-09T08:20:09.125Z,2.40
2023-05-09T08:22:36.395Z,2.70
2023-05-09T08:25:03.660Z,2.60
2023-05-09T08:27:30.915Z,2.60
2023-05-09T08:29:58.138Z,3.30
2023-05-09T08:32:25.449Z,2.60
2023-05-09T08:34:52.778Z,2.30
2023-05-09T08:37:19.997Z,2.00
2023-05-09T08:39:47.286Z,2.50
2023-05-09T08:42:16.175Z,5.50
2023-05-09T08:44:43.812Z,2.20
2023-05-09T08:47:11.805Z,2.30
2023-05-09T08:49:40.390Z,2.80
2023-05-09T08:52:12.507Z,2.60
2023-05-09T08:54:40.297Z,2.60
2023-05-09T08:57:07.861Z,2.80
2023-05-09T08:59:37.487Z,2.30
2023-05-09T09:02:08.600Z,2.40
2023-05-09T09:04:35.978Z,2.30
2023-05-09T09:07:05.964Z,2.70
2023-05-09T09:09:36.031Z,2.30
2023-05-09T09:12:08.682Z,2.40
2023-05-09T09:14:40.151Z,2.50
2023-05-09T09:17:09.459Z,2.50
2023-05-09T09:19:37.751Z,2.50
2023-05-09T09:22:05.909Z,2.30
2023-05-09T09:24:34.547Z,2.50
2023-05-09T09:27:07.097Z,2.40
2023-05-09T09:29:35.398Z,2.50
2023-05-09T09:32:04.558Z,2.60
2023-05-09T09:34:31.908Z,2.40
2023-05-09T09:36:59.636Z,2.80
2023-05-09T09:39:26.972Z,2.20
2023-05-09T09:41:54.379Z,2.60
2023-05-09T09:44:22.757Z,2.50
2023-05-09T09:46:54.567Z,2.10
2023-05-09T09:49:23.937Z,2.30
2023-05-09T09:51:57.334Z,2.30
2023-05-09T09:54:28.498Z,2.20
2023-05-09T09:56:57.387Z,2.50
2023-05-09T09:59:26.439Z,2.00
2023-05-09T10:01:56.653Z,2.50
2023-05-09T10:04:25.003Z,2.40
2023-05-09T10:06:58.338Z,2.30
2023-05-09T10:09:27.824Z,2.50
2023-05-09T10:11:56.667Z,2.40
2023-05-09T10:14:26.121Z,2.00
2023-05-09T10:16:57.861Z,2.50
2023-05-09T10:19:28.814Z,2.50
2023-05-09T10:21:58.273Z,2.80
2023-05-09T10:24:34.984Z,2.40
2023-05-09T10:27:07.059Z,2.90
2023-05-09T10:29:39.229Z,2.30
2023-05-09T10:32:17.206Z,2.80
2023-05-09T10:34:49.499Z,2.70
2023-05-09T10:37:18.714Z,2.50
2023-05-09T10:39:47.074Z,1.90
2023-05-09T10:42:14.643Z,2.90
2023-05-09T10:44:42.392Z,2.50
2023-05-09T10:47:10.023Z,2.50
2023-05-09T10:49:37.636Z,2.90
2023-05-09T10:52:05.240Z,2.20
2023-05-09T10:54:33.782Z,2.10
2023-05-09T10:57:01.104Z,2.50
2023-05-09T10:59:41.773Z,2.70
2023-05-09T11:02:20.005Z,2.70
2023-05-09T11:04:48.044Z,2.40
2023-05-09T11:07:27.058Z,2.60
2023-05-09T11:10:08.917Z,2.70
2023-05-09T11:12:54.411Z,2.70
2023-05-09T11:15:23.506Z,4.50
2023-05-09T11:18:12.440Z,1.90
2023-05-09T11:20:45.017Z,2.10
2023-05-09T11:23:12.742Z,2.00
2023-05-09T11:25:40.227Z,2.30
2023-05-09T11:28:07.583Z,2.10
2023-05-09T11:30:43.965Z,1.90
2023-05-09T11:33:24.765Z,1.90
2023-05-09T11:36:28.032Z,2.00
2023-05-09T11:39:08.506Z,1.70
2023-05-09T11:41:44.445Z,1.80
2023-05-09T11:44:20.221Z,1.80
2023-05-09T11:46:49.328Z,1.70
2023-05-09T11:49:17.278Z,1.90
2023-05-09T11:51:44.519Z,2.30
2023-05-09T11:54:13.752Z,1.90
2023-05-09T11:56:42.327Z,1.60
2023-05-09T11:59:10.716Z,2.00
2023-05-09T12:01:38.472Z,1.90
2023-05-09T12:04:08.504Z,1.50
2023-05-09T12:06:36.646Z,1.80
2023-05-09T12:09:04.014Z,1.50
2023-05-09T12:11:32.663Z,1.20
2023-05-09T12:13:59.928Z,1.80
2023-05-09T12:16:27.206Z,1.80
2023-05-09T12:18:54.981Z,1.80
2023-05-09T12:21:22.969Z,1.30
2023-05-09T12:23:52.458Z,1.70
2023-05-09T12:26:22.807Z,1.90
2023-05-09T12:28:50.730Z,1.60
2023-05-09T12:31:18.741Z,1.40
2023-05-09T12:33:47.092Z,1.50
2023-05-09T12:36:16.065Z,1.50
2023-05-09T12:38:56.121Z,1.60
2023-05-09T12:43:54.828Z,1.40
2023-05-09T12:46:22.387Z,1.60
2023-05-09T12:48:50.126Z,1.60
2023-05-09T12:51:21.851Z,1.90
2023-05-09T12:53:49.669Z,2.90
2023-05-09T12:56:18.843Z,1.30
2023-05-09T12:58:56.048Z,1.70
2023-05-09T13:01:28.083Z,1.60
2023-05-09T13:04:06.409Z,1.30
2023-05-09T13:06:35.316Z,1.60
2023-05-09T13:09:06.018Z,1.30
2023-05-09T13:11:33.570Z,1.60
2023-05-09T13:14:02.519Z,1.50
2023-05-09T13:16:29.808Z,1.10
2023-05-09T13:18:57.057Z,1.90
2023-05-09T13:21:24.558Z,1.30
2023-05-09T13:23:52.331Z,1.50
2023-05-09T13:26:19.721Z,1.10
2023-05-09T13:28:46.948Z,1.60
2023-05-09T13:31:14.425Z,1.40
2023-05-09T13:33:41.756Z,1.40
2023-05-09T13:36:09.031Z,1.20
2023-05-09T13:38:40.892Z,2.20
2023-05-09T13:41:08.834Z,1.40
2023-05-09T13:43:37.098Z,1.30
2023-05-09T13:46:04.754Z,1.30
2023-05-09T13:48:32.098Z,1.40
2023-05-09T13:51:00.677Z,1.50
2023-05-09T13:53:27.985Z,1.20
2023-05-09T13:55:55.276Z,1.60
2023-05-09T13:58:22.867Z,1.60
2023-05-09T14:00:50.526Z,2.30
2023-05-09T14:03:17.967Z,1.40
2023-05-09T14:05:45.311Z,1.30
2023-05-09T14:08:12.516Z,1.30
2023-05-09T14:10:39.715Z,1.10
2023-05-09T14:13:09.670Z,1.30
2023-05-09T14:15:36.875Z,1.40
2023-05-09T14:18:04.414Z,2.10
2023-05-09T14:20:31.637Z,1.20
2023-05-09T14:23:01.113Z,1.20
2023-05-09T14:25:28.439Z,1.30
2023-05-09T14:27:55.568Z,2.20
2023-05-09T14:30:23.302Z,1.70
2023-05-09T14:32:51.243Z,1.40
2023-05-09T14:35:18.717Z,1.20
2023-05-09T14:37:46.254Z,1.60
2023-05-09T14:40:13.734Z,1.50
2023-05-09T14:42:41.296Z,1.50
2023-05-09T14:45:12.204Z,1.20
2023-05-09T14:47:39.512Z,1.20
2023-05-09T14:50:10.170Z,1.00
2023-05-09T14:52:37.450Z,1.50
2023-05-09T14:55:06.338Z,1.20
2023-05-09T14:57:33.857Z,1.30
2023-05-09T15:00:19.743Z,1.30
2023-05-09T15:02:48.398Z,1.50
2023-05-09T15:05:16.899Z,1.20
2023-05-09T15:07:44.195Z,1.50
2023-05-09T15:10:11.764Z,1.30
2023-05-09T15:12:39.072Z,1.20
2023-05-09T15:15:17.897Z,1.40
2023-05-09T15:17:46.394Z,1.10
2023-05-09T15:20:15.992Z,1.40
2023-05-09T15:22:44.312Z,1.20
2023-05-09T15:25:11.865Z,1.30
2023-05-09T15:27:40.191Z,1.30
2023-05-09T15:30:08.379Z,1.20
2023-05-09T15:32:41.395Z,1.30
2023-05-09T15:35:09.287Z,1.60
2023-05-09T15:37:37.094Z,1.20
2023-05-09T15:40:05.251Z,1.50
2023-05-09T15:42:32.863Z,1.30
2023-05-09T15:45:00.166Z,1.30
2023-05-09T15:47:27.782Z,1.20
2023-05-09T15:49:55.026Z,1.20
2023-05-09T15:52:22.287Z,1.50
2023-05-09T15:54:50.882Z,1.40
2023-05-09T15:57:18.362Z,1.40
2023-05-09T15:59:45.922Z,1.50
2023-05-09T16:02:13.206Z,1.30
2023-05-09T16:04:40.548Z,1.30
2023-05-09T16:07:08.832Z,1.30
2023-05-09T16:09:37.420Z,1.70
2023-05-09T16:12:05.765Z,1.60
2023-05-09T16:14:33.045Z,1.40
2023-05-09T16:17:03.805Z,1.10
2023-05-09T16:19:31.248Z,1.50
2023-05-09T16:21:59.544Z,1.80
2023-05-09T16:24:27.339Z,1.40
2023-05-09T16:26:54.594Z,1.50
2023-05-09T16:29:22.770Z,1.40
2023-05-09T16:31:50.084Z,1.40
2023-05-09T16:34:17.472Z,1.40
2023-05-09T16:36:46.585Z,1.30
2023-05-09T16:39:13.774Z,1.30
2023-05-09T16:41:41.080Z,1.40
2023-05-09T16:44:08.437Z,1.30
2023-05-09T16:46:35.790Z,1.50
2023-05-09T16:49:03.046Z,1.40
2023-05-09T16:51:30.905Z,1.60
2023-05-09T16:53:58.638Z,1.20
2023-05-09T16:56:25.993Z,1.50
2023-05-09T16:58:53.266Z,1.50
2023-05-09T17:01:21.385Z,1.40
2023-05-09T17:03:48.706Z,1.30
2023-05-09T17:06:15.969Z,1.30
2023-05-09T17:08:43.162Z,1.40
2023-05-09T17:11:10.416Z,1.20
2023-05-09T17:13:38.073Z,1.40
2023-05-09T17:16:05.740Z,1.60
2023-05-09T17:18:37.714Z,1.20
2023-05-09T17:21:05.917Z,1.30
2023-05-09T17:23:33.680Z,1.60
2023-05-09T17:26:00.839Z,1.30
2023-05-09T17:28:28.084Z,1.50
2023-05-09T17:30:55.650Z,1.60
2023-05-09T17:33:22.904Z,1.30
2023-05-09T17:35:50.202Z,1.50
2023-05-09T17:38:17.700Z,1.30
2023-05-09T17:40:45.403Z,1.20
2023-05-09T17:43:13.455Z,1.30
2023-05-09T17:45:40.700Z,1.50
2023-05-09T17:48:08.246Z,1.40
2023-05-09T17:50:35.552Z,1.50
2023-05-09T17:53:02.866Z,1.70
2023-05-09T17:55:30.449Z,1.20
2023-05-09T17:57:57.740Z,1.40
2023-05-09T18:00:24.976Z,1.10
2023-05-09T18:02:52.396Z,1.70
2023-05-09T18:05:19.768Z,1.30
2023-05-09T18:07:46.972Z,1.40
2023-05-09T18:10:14.371Z,1.30
2023-05-09T18:12:45.272Z,1.10
2023-05-09T18:15:12.739Z,1.40
2023-05-09T18:17:40.135Z,1.20
2023-05-09T18:20:08.739Z,1.60
2023-05-09T18:22:38.028Z,1.50
2023-05-09T18:25:05.948Z,1.40
2023-05-09T18:27:33.248Z,1.70
2023-05-09T18:30:00.430Z,1.80
2023-05-09T18:32:27.685Z,1.60
2023-05-09T18:34:55.211Z,1.90
2023-05-09T18:37:23.043Z,1.40
2023-05-09T18:39:50.385Z,1.60
2023-05-09T18:42:17.597Z,1.30
2023-05-09T18:44:44.877Z,1.30
2023-05-09T18:47:12.244Z,1.60
2023-05-09T18:49:39.709Z,2.00
2023-05-09T18:52:07.321Z,2.00
2023-05-09T18:54:36.693Z,1.60
2023-05-09T18:57:04.081Z,1.60
2023-05-09T18:59:32.202Z,2.00
2023-05-09T19:01:59.420Z,2.00
2023-05-09T19:04:26.988Z,2.00
2023-05-09T19:06:59.429Z,2.40
2023-05-09T19:09:26.950Z,2.40
2023-05-09T19:11:54.211Z,2.70
2023-05-09T19:14:21.523Z,3.00
2023-05-09T19:16:48.703Z,2.40
2023-05-09T19:19:16.108Z,2.50
2023-05-09T19:24:28.960Z,2.00
2023-05-09T19:26:56.119Z,2.10
2023-05-09T19:29:23.278Z,1.90
2023-05-09T19:31:50.816Z,1.80
2023-05-09T19:34:18.060Z,1.80
2023-05-09T19:36:45.218Z,1.70
2023-05-09T19:39:12.652Z,1.40
2023-05-09T19:41:40.066Z,1.80
2023-05-09T19:44:07.482Z,1.70
2023-05-09T19:46:35.398Z,1.50
2023-05-09T19:49:02.943Z,1.60
2023-05-09T19:51:30.179Z,1.60
2023-05-09T19:53:57.380Z,2.00
2023-05-09T19:56:24.817Z,1.80
2023-05-09T19:58:52.146Z,1.80
2023-05-09T20:01:20.186Z,1.60
2023-05-09T20:03:50.380Z,1.70
2023-05-09T20:09:03.191Z,1.40
2023-05-09T20:11:30.359Z,1.30
2023-05-09T20:13:57.793Z,1.70
2023-05-09T20:16:25.015Z,1.80
2023-05-09T20:18:52.490Z,1.70
2023-05-09T20:21:19.646Z,1.50
2023-05-09T20:23:47.108Z,1.70
2023-05-09T20:26:14.367Z,1.70
2023-05-09T20:28:41.724Z,1.70
2023-05-09T20:31:08.908Z,1.60
2023-05-09T20:33:36.284Z,1.40
2023-05-09T20:36:03.687Z,1.60
2023-05-09T20:38:30.935Z,1.70
2023-05-09T20:40:58.182Z,1.80
2023-05-09T20:43:25.498Z,1.80
2023-05-09T20:45:53.828Z,1.80
2023-05-09T20:48:23.491Z,1.50
2023-05-09T20:50:50.753Z,1.70
2023-05-09T20:53:18.034Z,1.60
2023-05-09T20:55:45.221Z,1.40
2023-05-09T20:58:14.899Z,1.60
2023-05-09T21:00:42.331Z,1.70
2023-05-09T21:03:10.335Z,1.70
2023-05-09T21:05:37.671Z,1.50
2023-05-09T21:08:05.374Z,1.60
2023-05-09T21:10:32.605Z,1.50
2023-05-09T21:12:59.893Z,1.50
2023-05-09T21:15:27.151Z,1.60
2023-05-09T21:17:54.354Z,1.90
2023-05-09T21:20:21.676Z,1.40
2023-05-09T21:22:48.857Z,2.30
2023-05-09T21:25:17.514Z,1.70
2023-05-09T21:27:44.682Z,1.60
2023-05-09T21:30:12.099Z,1.60
2023-05-09T21:32:39.411Z,1.50
2023-05-09T21:35:10.763Z,1.80
2023-05-09T21:37:37.988Z,1.80
2023-05-09T21:40:05.987Z,1.10
2023-05-09T21:42:33.197Z,1.40
2023-05-09T21:45:00.530Z,1.50
2023-05-09T21:47:28.943Z,1.60
2023-05-09T21:49:56.433Z,1.60
2023-05-09T21:52:23.958Z,1.70
2023-05-09T21:54:51.138Z,1.20
2023-05-09T21:57:18.472Z,1.70
2023-05-09T21:59:48.055Z,2.00
2023-05-09T22:02:15.358Z,1.70
2023-05-09T22:04:42.595Z,2.60
2023-05-09T22:07:09.704Z,1.70
2023-05-09T22:09:36.895Z,1.70
2023-05-09T22:12:04.517Z,2.00
2023-05-09T22:14:37.146Z,1.90
2023-05-09T22:17:09.395Z,1.80
2023-05-09T22:19:38.352Z,2.40
2023-05-09T22:22:05.574Z,1.80
2023-05-09T22:24:32.953Z,1.90
2023-05-09T22:27:00.221Z,1.50
2023-05-09T22:29:28.022Z,1.80
2023-05-09T22:31:55.669Z,1.60
2023-05-09T22:34:23.042Z,1.90
2023-05-09T22:36:50.234Z,1.80
2023-05-09T22:39:17.527Z,1.70
2023-05-09T22:41:44.768Z,2.10
2023-05-09T22:44:12.139Z,2.00
2023-05-09T22:46:39.521Z,1.80
2023-05-09T22:49:06.804Z,1.80
2023-05-09T22:51:34.189Z,2.00
2023-05-09T22:54:01.720Z,2.00
2023-05-09T22:56:29.001Z,2.20
2023-05-09T22:58:56.279Z,1.90
2023-05-09T23:01:23.484Z,2.00
2023-05-09T23:03:50.997Z,2.20
2023-05-09T23:06:18.175Z,1.80
2023-05-09T23:08:45.663Z,2.40
2023-05-09T23:11:13.065Z,1.60
2023-05-09T23:13:40.389Z,2.00
2023-05-09T23:16:07.593Z,1.70
2023-05-09T23:18:34.899Z,2.00
2023-05-09T23:21:02.212Z,2.20
2023-05-09T23:23:29.546Z,2.50
2023-05-09T23:25:56.856Z,1.90
2023-05-09T23:28:25.562Z,2.20
2023-05-09T23:30:55.957Z,2.10
2023-05-09T23:33:23.531Z,1.80
2023-05-09T23:35:51.036Z,2.00
2023-05-09T23:38:18.304Z,2.00
2023-05-09T23:40:46.221Z,2.50
2023-05-09T23:43:13.837Z,2.20
2023-05-09T23:45:41.124Z,2.20
2023-05-09T23:48:08.435Z,1.90
2023-05-09T23:50:36.139Z,2.30
2023-05-09T23:53:05.103Z,2.10
2023-05-09T23:55:32.544Z,2.30
2023-05-09T23:58:01.145Z,2.40
